Time;durP1;ratioP1;P1;durP2;ratioP2;P2;SDS_P1;SDS_P2;PMS_P1;PMS_P2;Temp;Humidity;BMP_temperature;BMP_pressure;BME280_temperature;BME280_humidity;BME280_pressure;Samples;Min_cycle;Max_cycle;Signal;HPM_P1;HPM_P2
2021/01/04 00:00:09;;;;;;;36.00;24.57;;;;;;;;;;5109743;28;20626;-50
2021/01/04 00:02:37;;;;;;;34.93;24.40;;;;;;;;;;5109818;28;20613;-50
2021/01/04 00:05:06;;;;;;;41.13;27.80;;;;;;;;;;5109753;28;21079;-49
2021/01/04 00:07:31;;;;;;;37.80;26.33;;;;;;;;;;5108478;28;20636;-50
2021/01/04 00:10:18;;;;;;;38.33;26.60;;;;;;;;;;5110365;28;20638;-49
2021/01/04 00:12:53;;;;;;;34.67;26.67;;;;;;;;;;5103982;28;20169;-49
2021/01/04 00:15:19;;;;;;;38.57;27.37;;;;;;;;;;5105759;28;20679;-49
2021/01/04 00:17:52;;;;;;;38.07;26.93;;;;;;;;;;5109584;28;20622;-48
2021/01/04 00:20:20;;;;;;;36.00;26.30;;;;;;;;;;5109945;28;21033;-50
2021/01/04 00:23:12;;;;;;;37.27;26.53;;;;;;;;;;5109846;28;20603;-49
2021/01/04 00:25:37;;;;;;;34.57;24.70;;;;;;;;;;5091400;28;20666;-50
2021/01/04 00:28:09;;;;;;;38.58;26.20;;;;;;;;;;5109481;28;20594;-49
2021/01/04 00:30:39;;;;;;;38.97;27.37;;;;;;;;;;5109759;28;20677;-49
2021/01/04 00:33:11;;;;;;;36.50;26.07;;;;;;;;;;5110090;28;20640;-49
2021/01/04 00:35:36;;;;;;;40.77;27.47;;;;;;;;;;5110444;28;21181;-50
2021/01/04 00:38:17;;;;;;;42.07;29.07;;;;;;;;;;5109744;28;20683;-49
2021/01/04 00:41:01;;;;;;;35.97;26.37;;;;;;;;;;5107771;28;20255;-50
2021/01/04 00:43:34;;;;;;;43.50;27.40;;;;;;;;;;5109647;28;21170;-50
2021/01/04 00:46:00;;;;;;;34.67;25.90;;;;;;;;;;5109458;28;20606;-49
2021/01/04 00:48:33;;;;;;;37.20;26.07;;;;;;;;;;5109735;28;20588;-51
2021/01/04 00:51:05;;;;;;;37.27;26.00;;;;;;;;;;5109523;28;20177;-50
2021/01/04 00:53:35;;;;;;;38.93;27.30;;;;;;;;;;5109419;28;20596;-50
2021/01/04 00:56:18;;;;;;;41.00;25.73;;;;;;;;;;5107485;28;20889;-50
2021/01/04 00:58:50;;;;;;;37.00;26.07;;;;;;;;;;5109115;28;20615;-50
2021/01/04 01:01:23;;;;;;;36.47;27.00;;;;;;;;;;5109313;28;20629;-50
2021/01/04 01:03:52;;;;;;;36.67;25.73;;;;;;;;;;5107216;28;20681;-50
2021/01/04 01:06:35;;;;;;;38.10;27.07;;;;;;;;;;5107516;28;21193;-50
2021/01/04 01:09:01;;;;;;;44.63;27.97;;;;;;;;;;5103637;28;20605;-50
2021/01/04 01:11:38;;;;;;;34.60;25.53;;;;;;;;;;5109738;28;20653;-50
2021/01/04 01:14:06;;;;;;;38.73;27.40;;;;;;;;;;5112329;28;20173;-51
2021/01/04 01:16:49;;;;;;;37.90;26.13;;;;;;;;;;5110884;28;20652;-50
2021/01/04 01:19:20;;;;;;;37.33;26.23;;;;;;;;;;5112708;28;21389;-49
2021/01/04 01:21:46;;;;;;;36.60;25.97;;;;;;;;;;5111197;28;20656;-49
2021/01/04 01:24:12;;;;;;;35.90;26.53;;;;;;;;;;5112924;28;20650;-49
2021/01/04 01:26:55;;;;;;;37.80;26.27;;;;;;;;;;5111397;28;20637;-49
2021/01/04 01:29:39;;;;;;;36.77;25.50;;;;;;;;;;5112977;27;20170;-50
2021/01/04 01:32:22;;;;;;;37.77;25.70;;;;;;;;;;5095010;28;20951;-50
2021/01/04 01:34:53;;;;;;;37.70;26.17;;;;;;;;;;5106801;28;20651;-49
2021/01/04 01:37:37;;;;;;;34.53;26.30;;;;;;;;;;5109097;28;20583;-50
2021/01/04 01:40:21;;;;;;;36.30;26.47;;;;;;;;;;5110314;28;20615;-50
2021/01/04 01:43:01;;;;;;;35.53;26.23;;;;;;;;;;5112788;28;20609;-50
2021/01/04 01:45:32;;;;;;;34.30;26.10;;;;;;;;;;5112679;28;20652;-50
2021/01/04 01:48:06;;;;;;;36.03;26.17;;;;;;;;;;5107213;28;20596;-49
2021/01/04 01:50:31;;;;;;;38.90;26.13;;;;;;;;;;5111314;28;21018;-50
2021/01/04 01:53:17;;;;;;;34.90;26.20;;;;;;;;;;5110514;28;20964;-50
2021/01/04 01:55:45;;;;;;;34.13;25.80;;;;;;;;;;5110304;28;20741;-50
2021/01/04 01:58:13;;;;;;;36.80;25.63;;;;;;;;;;5103592;28;20680;-49
2021/01/04 02:00:45;;;;;;;35.40;24.10;;;;;;;;;;5111440;28;21180;-50
2021/01/04 02:03:20;;;;;;;37.97;26.93;;;;;;;;;;5112862;28;20618;-51
2021/01/04 02:05:55;;;;;;;34.37;24.87;;;;;;;;;;5106644;28;20665;-50
2021/01/04 02:08:24;;;;;;;42.17;28.30;;;;;;;;;;5111285;28;20732;-50
2021/01/04 02:10:52;;;;;;;36.70;26.37;;;;;;;;;;5111228;28;20601;-50
2021/01/04 02:13:26;;;;;;;35.03;25.30;;;;;;;;;;5111664;28;20610;-50
2021/01/04 02:15:57;;;;;;;35.53;23.90;;;;;;;;;;5109725;28;20589;-50
2021/01/04 02:18:40;;;;;;;34.93;25.57;;;;;;;;;;5111543;28;21698;-51
2021/01/04 02:21:18;;;;;;;36.20;24.53;;;;;;;;;;5117690;27;20608;-50
2021/01/04 02:24:01;;;;;;;31.57;23.80;;;;;;;;;;5110367;28;21199;-50
2021/01/04 02:26:27;;;;;;;32.50;24.00;;;;;;;;;;5109749;28;20715;-50
2021/01/04 02:28:52;;;;;;;36.90;25.33;;;;;;;;;;5112072;28;20619;-50
2021/01/04 02:31:17;;;;;;;31.08;23.80;;;;;;;;;;5111580;28;20630;-50
2021/01/04 02:33:42;;;;;;;39.90;27.00;;;;;;;;;;5112039;28;20775;-49
2021/01/04 02:36:08;;;;;;;35.47;25.43;;;;;;;;;;5110024;28;20251;-50
2021/01/04 02:38:37;;;;;;;35.13;24.70;;;;;;;;;;5109464;28;20202;-50
2021/01/04 02:41:02;;;;;;;37.60;26.03;;;;;;;;;;5111713;28;20233;-50
2021/01/04 02:43:28;;;;;;;35.23;24.30;;;;;;;;;;5110735;28;20750;-50
2021/01/04 02:45:54;;;;;;;38.72;25.38;;;;;;;;;;5111553;28;20607;-50
2021/01/04 02:48:34;;;;;;;37.23;26.07;;;;;;;;;;5107771;28;20185;-50
2021/01/04 02:51:10;;;;;;;37.60;26.07;;;;;;;;;;5110338;28;20590;-51
2021/01/04 02:53:58;;;;;;;37.53;26.90;;;;;;;;;;5110022;28;20651;-50
2021/01/04 02:56:32;;;;;;;40.63;26.80;;;;;;;;;;5109322;28;20596;-51
2021/01/04 02:59:03;;;;;;;37.17;25.17;;;;;;;;;;5108406;28;20597;-51
2021/01/04 03:01:39;;;;;;;39.83;25.40;;;;;;;;;;5110413;28;20606;-51
2021/01/04 03:04:04;;;;;;;39.10;25.00;;;;;;;;;;5110760;28;20650;-50
2021/01/04 03:06:32;;;;;;;35.38;24.90;;;;;;;;;;5109688;28;21432;-51
2021/01/04 03:08:58;;;;;;;41.60;25.83;;;;;;;;;;5105521;28;20203;-51
2021/01/04 03:11:27;;;;;;;39.22;25.73;;;;;;;;;;5111663;28;20637;-51
2021/01/04 03:13:52;;;;;;;38.43;26.37;;;;;;;;;;5110528;28;20179;-51
2021/01/04 03:16:21;;;;;;;42.73;27.13;;;;;;;;;;5109080;28;20979;-50
2021/01/04 03:19:06;;;;;;;40.30;24.63;;;;;;;;;;5110909;28;20289;-50
2021/01/04 03:21:32;;;;;;;39.23;25.63;;;;;;;;;;5111201;28;20610;-51
2021/01/04 03:23:57;;;;;;;49.17;28.30;;;;;;;;;;5110436;28;20657;-50
2021/01/04 03:26:25;;;;;;;39.90;26.00;;;;;;;;;;5108966;28;20602;-50
2021/01/04 03:28:50;;;;;;;38.77;26.50;;;;;;;;;;5110944;28;20180;-51
2021/01/04 03:31:15;;;;;;;43.90;26.93;;;;;;;;;;5110879;28;20598;-51
2021/01/04 03:33:40;;;;;;;40.03;26.10;;;;;;;;;;5110795;28;20259;-51
2021/01/04 03:36:05;;;;;;;45.33;28.27;;;;;;;;;;5109576;28;20178;-51
2021/01/04 03:38:32;;;;;;;45.60;28.87;;;;;;;;;;5108479;28;20187;-50
2021/01/04 03:40:58;;;;;;;43.93;27.03;;;;;;;;;;5110104;28;20245;-52
2021/01/04 03:43:23;;;;;;;44.73;28.40;;;;;;;;;;5111276;28;20607;-50
2021/01/04 03:45:48;;;;;;;41.60;26.95;;;;;;;;;;5111295;27;20200;-50
2021/01/04 03:48:13;;;;;;;46.50;28.37;;;;;;;;;;5108688;28;20174;-51
2021/01/04 03:50:39;;;;;;;45.57;27.17;;;;;;;;;;5106899;28;20239;-50
2021/01/04 03:53:04;;;;;;;49.03;27.90;;;;;;;;;;5107630;28;20172;-49
2021/01/04 03:55:29;;;;;;;40.67;26.93;;;;;;;;;;5114672;27;20175;-50
2021/01/04 03:57:54;;;;;;;43.42;27.00;;;;;;;;;;5109585;27;20951;-51
2021/01/04 04:00:20;;;;;;;42.27;27.70;;;;;;;;;;5110750;28;20193;-50
2021/01/04 04:02:45;;;;;;;41.13;27.40;;;;;;;;;;5109818;28;20212;-50
2021/01/04 04:05:14;;;;;;;44.77;27.93;;;;;;;;;;5110731;28;20200;-51
2021/01/04 04:07:40;;;;;;;43.87;27.60;;;;;;;;;;5107691;28;20727;-52
2021/01/04 04:10:05;;;;;;;43.90;26.80;;;;;;;;;;5110076;28;20647;-50
2021/01/04 04:12:30;;;;;;;43.63;27.70;;;;;;;;;;5110221;28;20650;-51
2021/01/04 04:14:55;;;;;;;44.15;28.60;;;;;;;;;;5109757;28;20177;-51
2021/01/04 04:17:20;;;;;;;47.80;29.57;;;;;;;;;;5107672;28;20639;-51
2021/01/04 04:19:46;;;;;;;50.00;29.17;;;;;;;;;;5109719;28;20251;-51
2021/01/04 04:22:12;;;;;;;41.93;26.67;;;;;;;;;;5109465;28;20203;-50
2021/01/04 04:24:38;;;;;;;43.87;28.40;;;;;;;;;;5110095;28;20710;-51
2021/01/04 04:27:03;;;;;;;42.40;28.07;;;;;;;;;;5107092;28;20165;-50
2021/01/04 04:29:28;;;;;;;46.93;28.70;;;;;;;;;;5108001;28;20636;-50
2021/01/04 04:31:55;;;;;;;46.55;28.67;;;;;;;;;;5109673;28;20173;-51
2021/01/04 04:34:20;;;;;;;42.40;26.40;;;;;;;;;;5110622;28;20692;-50
2021/01/04 04:36:45;;;;;;;47.80;28.60;;;;;;;;;;5107900;28;21167;-50
2021/01/04 04:39:14;;;;;;;45.60;28.85;;;;;;;;;;5109222;28;20202;-50
2021/01/04 04:41:41;;;;;;;42.73;27.80;;;;;;;;;;5110092;28;20181;-50
2021/01/04 04:44:08;;;;;;;44.20;28.10;;;;;;;;;;5109247;28;20642;-50
2021/01/04 04:46:40;;;;;;;45.77;27.40;;;;;;;;;;5110422;28;20609;-50
2021/01/04 04:49:11;;;;;;;50.37;29.83;;;;;;;;;;5112119;28;20607;-51
2021/01/04 04:52:01;;;;;;;45.80;27.17;;;;;;;;;;5113542;28;20588;-51
2021/01/04 04:54:37;;;;;;;52.60;30.90;;;;;;;;;;5113545;28;20598;-50
2021/01/04 04:57:11;;;;;;;43.33;27.43;;;;;;;;;;5109163;28;20650;-50
2021/01/04 04:59:41;;;;;;;45.23;28.30;;;;;;;;;;5113518;28;20624;-50
2021/01/04 05:02:28;;;;;;;45.17;26.97;;;;;;;;;;5112611;28;20611;-50
2021/01/04 05:05:05;;;;;;;40.27;27.10;;;;;;;;;;5114198;28;21251;-51
2021/01/04 05:07:36;;;;;;;47.47;29.77;;;;;;;;;;5111873;28;20647;-50
2021/01/04 05:10:10;;;;;;;46.67;27.70;;;;;;;;;;5113559;28;20627;-51
2021/01/04 05:12:55;;;;;;;50.00;29.20;;;;;;;;;;5113107;28;20697;-51
2021/01/04 05:15:34;;;;;;;45.60;28.27;;;;;;;;;;5112384;28;20595;-51
2021/01/04 05:18:12;;;;;;;44.67;28.47;;;;;;;;;;5111085;28;21605;-51
2021/01/04 05:20:56;;;;;;;40.40;27.00;;;;;;;;;;5107949;28;20633;-49
2021/01/04 05:23:33;;;;;;;48.00;29.03;;;;;;;;;;5112853;28;20603;-49
2021/01/04 05:26:17;;;;;;;49.73;30.43;;;;;;;;;;5113223;28;20615;-50
2021/01/04 05:29:00;;;;;;;54.30;29.13;;;;;;;;;;5104382;28;20595;-49
2021/01/04 05:31:31;;;;;;;48.83;28.63;;;;;;;;;;5113284;27;20653;-49
2021/01/04 05:34:05;;;;;;;43.37;27.30;;;;;;;;;;5113218;28;21278;-50
2021/01/04 05:36:36;;;;;;;47.33;29.30;;;;;;;;;;5112360;28;20620;-49
2021/01/04 05:39:07;;;;;;;43.33;28.50;;;;;;;;;;5111150;28;20627;-50
2021/01/04 05:41:50;;;;;;;45.97;28.93;;;;;;;;;;5112825;28;20610;-49
2021/01/04 05:44:24;;;;;;;43.70;27.17;;;;;;;;;;5112174;28;20649;-49
2021/01/04 05:47:10;;;;;;;49.10;29.67;;;;;;;;;;5111611;28;20594;-49
2021/01/04 05:49:42;;;;;;;49.27;29.27;;;;;;;;;;5087536;28;20602;-50
2021/01/04 05:52:07;;;;;;;50.60;29.77;;;;;;;;;;5108737;28;20605;-49
2021/01/04 05:54:34;;;;;;;43.65;28.90;;;;;;;;;;5113008;27;20668;-48
2021/01/04 05:57:07;;;;;;;43.33;28.27;;;;;;;;;;5115586;27;20196;-50
2021/01/04 05:59:33;;;;;;;49.37;30.20;;;;;;;;;;5089427;28;20957;-48
2021/01/04 06:02:02;;;;;;;45.87;28.60;;;;;;;;;;5112976;27;20625;-49
2021/01/04 06:04:27;;;;;;;48.23;28.90;;;;;;;;;;5109483;27;20662;-49
2021/01/04 06:06:52;;;;;;;55.47;31.27;;;;;;;;;;5108838;28;20614;-49
2021/01/04 06:09:17;;;;;;;48.20;31.67;;;;;;;;;;5105739;28;20644;-48
2021/01/04 06:11:57;;;;;;;46.47;28.75;;;;;;;;;;5108118;28;20184;-50
2021/01/04 06:14:24;;;;;;;48.23;29.63;;;;;;;;;;5108638;28;20181;-49
2021/01/04 06:16:56;;;;;;;51.27;30.43;;;;;;;;;;5107871;28;20667;-49
2021/01/04 06:19:22;;;;;;;47.80;29.30;;;;;;;;;;5105234;28;21220;-48
2021/01/04 06:22:07;;;;;;;44.60;28.70;;;;;;;;;;5108216;28;20701;-49
2021/01/04 06:24:34;;;;;;;50.27;30.30;;;;;;;;;;5100680;28;21320;-48
2021/01/04 06:27:05;;;;;;;48.20;29.57;;;;;;;;;;5107832;28;21395;-48
2021/01/04 06:29:35;;;;;;;47.27;28.90;;;;;;;;;;5102324;28;20584;-49
2021/01/04 06:32:01;;;;;;;50.17;30.80;;;;;;;;;;5108450;28;20594;-49
2021/01/04 06:34:35;;;;;;;47.80;28.70;;;;;;;;;;5109104;27;20601;-49
2021/01/04 06:37:07;;;;;;;54.17;31.47;;;;;;;;;;5107599;28;20598;-48
2021/01/04 06:39:33;;;;;;;51.70;29.50;;;;;;;;;;5104503;28;20610;-49
2021/01/04 06:42:09;;;;;;;49.73;31.20;;;;;;;;;;5108755;28;21215;-49
2021/01/04 06:44:34;;;;;;;46.40;29.57;;;;;;;;;;5107377;27;20645;-49
2021/01/04 06:47:24;;;;;;;54.47;31.90;;;;;;;;;;5107808;28;20591;-49
2021/01/04 06:50:10;;;;;;;51.73;29.40;;;;;;;;;;5104067;28;20209;-48
2021/01/04 06:53:01;;;;;;;52.07;32.00;;;;;;;;;;5107944;28;20590;-49
2021/01/04 06:55:44;;;;;;;65.50;35.57;;;;;;;;;;5106321;27;20709;-48
2021/01/04 06:58:21;;;;;;;55.87;33.53;;;;;;;;;;5106360;28;20694;-49
2021/01/04 07:00:49;;;;;;;56.97;33.27;;;;;;;;;;5105216;27;20606;-49
2021/01/04 07:03:17;;;;;;;45.53;28.63;;;;;;;;;;5107032;28;20607;-48
2021/01/04 07:06:01;;;;;;;55.40;30.90;;;;;;;;;;5107624;28;20686;-49
2021/01/04 07:08:50;;;;;;;54.63;29.53;;;;;;;;;;5085694;28;20597;-48
2021/01/04 07:11:35;;;;;;;53.77;31.47;;;;;;;;;;5106275;28;20582;-49
2021/01/04 07:14:01;;;;;;;49.40;29.30;;;;;;;;;;5105709;28;20613;-49
2021/01/04 07:16:38;;;;;;;52.33;30.92;;;;;;;;;;5107857;28;20598;-49
2021/01/04 07:19:27;;;;;;;53.03;30.43;;;;;;;;;;5102945;28;20239;-49
2021/01/04 07:22:07;;;;;;;53.13;31.10;;;;;;;;;;5102085;27;20615;-50
2021/01/04 07:24:38;;;;;;;55.67;32.40;;;;;;;;;;5106912;28;20649;-49
2021/01/04 07:27:12;;;;;;;54.23;31.07;;;;;;;;;;5105002;27;21431;-49
2021/01/04 07:29:40;;;;;;;48.63;29.70;;;;;;;;;;5095264;28;20581;-48
2021/01/04 07:32:17;;;;;;;49.73;32.30;;;;;;;;;;5106682;28;20997;-49
2021/01/04 07:34:45;;;;;;;47.30;29.97;;;;;;;;;;5101940;28;20610;-49
2021/01/04 07:37:26;;;;;;;50.70;28.80;;;;;;;;;;5107909;28;20608;-49
2021/01/04 07:39:58;;;;;;;45.13;29.60;;;;;;;;;;5098493;28;20587;-48
2021/01/04 07:42:52;;;;;;;49.63;31.80;;;;;;;;;;5107248;27;21216;-49
2021/01/04 07:45:17;;;;;;;55.50;30.90;;;;;;;;;;5108772;28;20639;-49
2021/01/04 07:47:42;;;;;;;43.75;30.05;;;;;;;;;;5106540;28;20602;-48
2021/01/04 07:50:13;;;;;;;53.30;32.33;;;;;;;;;;5107069;28;20634;-49
2021/01/04 07:52:57;;;;;;;55.60;31.30;;;;;;;;;;5109755;28;20256;-50
2021/01/04 07:55:47;;;;;;;45.30;28.40;;;;;;;;;;5110059;28;20620;-48
2021/01/04 07:58:24;;;;;;;48.40;29.27;;;;;;;;;;5102177;28;20599;-50
2021/01/04 08:01:01;;;;;;;49.83;31.40;;;;;;;;;;5090752;28;20975;-55
2021/01/04 08:03:35;;;;;;;54.80;33.03;;;;;;;;;;5109873;28;20590;-49
2021/01/04 08:06:23;;;;;;;51.70;30.30;;;;;;;;;;5109518;28;20651;-49
2021/01/04 08:09:01;;;;;;;46.63;29.73;;;;;;;;;;5107528;28;20591;-49
2021/01/04 08:11:38;;;;;;;51.60;30.83;;;;;;;;;;5110051;28;20605;-49
2021/01/04 08:14:09;;;;;;;53.83;30.87;;;;;;;;;;5109245;28;21195;-49
2021/01/04 08:16:36;;;;;;;47.50;30.77;;;;;;;;;;5104750;28;20595;-48
2021/01/04 08:19:04;;;;;;;55.20;32.20;;;;;;;;;;5107434;28;20650;-49
2021/01/04 08:21:37;;;;;;;48.00;31.90;;;;;;;;;;5109595;28;20589;-48
2021/01/04 08:24:11;;;;;;;54.97;32.40;;;;;;;;;;5109662;28;20650;-49
2021/01/04 08:26:56;;;;;;;48.03;30.20;;;;;;;;;;5109715;28;20597;-50
2021/01/04 08:29:30;;;;;;;50.63;30.90;;;;;;;;;;5107309;28;20626;-48
2021/01/04 08:32:12;;;;;;;54.77;32.03;;;;;;;;;;5105651;28;20600;-48
2021/01/04 08:34:39;;;;;;;53.37;31.90;;;;;;;;;;5103030;28;20634;-49
2021/01/04 08:37:04;;;;;;;51.13;31.30;;;;;;;;;;5109796;28;20590;-49
2021/01/04 08:39:36;;;;;;;54.33;31.50;;;;;;;;;;5107349;28;20702;-49
2021/01/04 08:42:04;;;;;;;56.27;33.50;;;;;;;;;;5109633;28;20176;-49
2021/01/04 08:44:29;;;;;;;48.37;30.57;;;;;;;;;;5109459;28;20674;-49
2021/01/04 08:47:05;;;;;;;48.37;31.57;;;;;;;;;;5109586;28;20623;-49
2021/01/04 08:49:38;;;;;;;54.93;30.50;;;;;;;;;;5107567;28;20177;-49
2021/01/04 08:52:12;;;;;;;54.30;33.20;;;;;;;;;;5109403;28;20613;-47
2021/01/04 08:54:37;;;;;;;51.07;31.40;;;;;;;;;;5109611;28;20602;-49
2021/01/04 08:57:13;;;;;;;58.40;33.35;;;;;;;;;;5109275;28;20702;-49
2021/01/04 08:59:38;;;;;;;51.30;30.73;;;;;;;;;;5099735;28;20264;-49
2021/01/04 09:02:18;;;;;;;50.33;32.27;;;;;;;;;;5109520;28;20603;-48
2021/01/04 09:04:43;;;;;;;48.17;31.50;;;;;;;;;;5108954;28;20241;-49
2021/01/04 09:07:11;;;;;;;51.00;31.88;;;;;;;;;;5109055;28;20592;-49
2021/01/04 09:09:49;;;;;;;47.67;31.10;;;;;;;;;;5106215;28;20257;-48
2021/01/04 09:12:33;;;;;;;57.57;32.87;;;;;;;;;;5108639;28;21134;-49
2021/01/04 09:15:13;;;;;;;50.50;31.77;;;;;;;;;;5109039;28;20648;-48
2021/01/04 09:17:57;;;;;;;48.17;30.40;;;;;;;;;;5109768;28;20615;-48
2021/01/04 09:20:23;;;;;;;49.73;29.27;;;;;;;;;;5107261;28;20626;-48
2021/01/04 09:23:01;;;;;;;55.87;33.50;;;;;;;;;;5107767;28;20591;-48
2021/01/04 09:25:28;;;;;;;53.33;31.50;;;;;;;;;;5107091;28;20760;-48
2021/01/04 09:27:54;;;;;;;55.13;32.40;;;;;;;;;;5107913;28;20628;-49
2021/01/04 09:30:24;;;;;;;49.03;32.20;;;;;;;;;;5106591;28;20594;-50
2021/01/04 09:32:49;;;;;;;52.10;29.87;;;;;;;;;;5108468;28;20901;-48
2021/01/04 09:35:24;;;;;;;53.00;30.10;;;;;;;;;;5111404;28;20690;-48
2021/01/04 09:37:59;;;;;;;38.97;28.40;;;;;;;;;;5111583;28;20202;-50
2021/01/04 09:40:24;;;;;;;50.43;31.73;;;;;;;;;;5110034;27;20994;-48
2021/01/04 09:42:49;;;;;;;53.90;31.00;;;;;;;;;;5111986;28;20610;-48
2021/01/04 09:45:17;;;;;;;48.07;30.77;;;;;;;;;;5112106;27;20197;-50
2021/01/04 09:47:46;;;;;;;55.53;30.43;;;;;;;;;;5111607;28;20671;-49
2021/01/04 09:50:20;;;;;;;50.27;29.67;;;;;;;;;;5108517;28;20601;-49
2021/01/04 09:52:49;;;;;;;50.47;29.47;;;;;;;;;;5111682;28;20610;-49
2021/01/04 09:55:14;;;;;;;47.27;30.40;;;;;;;;;;5107254;28;20639;-49
2021/01/04 09:57:44;;;;;;;45.27;28.90;;;;;;;;;;5110523;28;20753;-49
2021/01/04 10:00:14;;;;;;;50.93;29.77;;;;;;;;;;5110097;27;20182;-48
2021/01/04 10:02:39;;;;;;;49.07;30.50;;;;;;;;;;5111289;27;20599;-48
2021/01/04 10:05:08;;;;;;;47.38;29.83;;;;;;;;;;5111259;28;20855;-48
2021/01/04 10:07:33;;;;;;;45.23;29.53;;;;;;;;;;5111497;28;20185;-50
2021/01/04 10:09:59;;;;;;;50.93;31.23;;;;;;;;;;5105965;28;20607;-48
2021/01/04 10:12:26;;;;;;;51.77;30.57;;;;;;;;;;5109922;28;20263;-49
2021/01/04 10:14:56;;;;;;;50.80;30.83;;;;;;;;;;5098545;28;20519;-49
2021/01/04 10:17:24;;;;;;;46.83;29.73;;;;;;;;;;5112674;28;20614;-49
2021/01/04 10:19:53;;;;;;;48.93;31.33;;;;;;;;;;5109385;28;20647;-49
2021/01/04 10:22:24;;;;;;;51.10;31.40;;;;;;;;;;5111800;28;20598;-49
2021/01/04 10:24:49;;;;;;;49.43;31.20;;;;;;;;;;5111708;28;21243;-49
2021/01/04 10:27:16;;;;;;;50.42;30.92;;;;;;;;;;5111652;28;21239;-49
2021/01/04 10:29:42;;;;;;;44.80;29.20;;;;;;;;;;5110435;28;20178;-50
2021/01/04 10:32:11;;;;;;;47.50;29.93;;;;;;;;;;5111641;28;20651;-50
2021/01/04 10:34:41;;;;;;;44.20;28.73;;;;;;;;;;5111859;28;20688;-50
2021/01/04 10:37:15;;;;;;;44.73;30.10;;;;;;;;;;5110237;27;20771;-49
2021/01/04 10:39:40;;;;;;;45.50;29.50;;;;;;;;;;5106310;27;20618;-49
2021/01/04 10:42:07;;;;;;;49.80;29.80;;;;;;;;;;5109383;27;20615;-49
2021/01/04 10:44:33;;;;;;;44.90;30.20;;;;;;;;;;5107813;28;20202;-49
2021/01/04 10:47:00;;;;;;;47.20;28.70;;;;;;;;;;5112363;27;20610;-49
2021/01/04 10:49:34;;;;;;;53.03;31.83;;;;;;;;;;5109958;27;20249;-50
2021/01/04 10:51:59;;;;;;;53.20;29.40;;;;;;;;;;5102333;28;20594;-49
2021/01/04 10:54:35;;;;;;;47.53;30.83;;;;;;;;;;5107390;28;20595;-49
2021/01/04 10:57:19;;;;;;;56.47;31.53;;;;;;;;;;5109900;27;20201;-49
2021/01/04 10:59:57;;;;;;;50.50;30.30;;;;;;;;;;5106180;28;20606;-49
2021/01/04 11:02:23;;;;;;;55.27;32.30;;;;;;;;;;5104658;28;20720;-48
2021/01/04 11:04:54;;;;;;;50.40;29.23;;;;;;;;;;5107771;28;20730;-49
2021/01/04 11:07:26;;;;;;;46.57;28.60;;;;;;;;;;5108571;28;20189;-49
2021/01/04 11:09:51;;;;;;;49.00;29.57;;;;;;;;;;5105941;28;20599;-49
2021/01/04 11:12:20;;;;;;;48.65;29.70;;;;;;;;;;5105629;28;20598;-49
2021/01/04 11:15:11;;;;;;;50.50;28.67;;;;;;;;;;5104345;28;20309;-49
2021/01/04 11:17:36;;;;;;;50.80;31.33;;;;;;;;;;5103040;27;20609;-48
2021/01/04 11:20:06;;;;;;;51.80;30.23;;;;;;;;;;5105323;28;21018;-48
2021/01/04 11:22:31;;;;;;;49.13;30.33;;;;;;;;;;5111102;28;20277;-47
2021/01/04 11:24:56;;;;;;;47.85;29.58;;;;;;;;;;5107437;28;20659;-47
2021/01/04 11:27:22;;;;;;;50.67;29.27;;;;;;;;;;5110157;28;20176;-49
2021/01/04 11:29:48;;;;;;;43.97;28.30;;;;;;;;;;5106004;28;20264;-49
2021/01/04 11:32:13;;;;;;;49.67;30.43;;;;;;;;;;5109386;28;20192;-49
2021/01/04 11:34:46;;;;;;;46.60;28.10;;;;;;;;;;5110031;27;20640;-49
2021/01/04 11:37:12;;;;;;;44.77;28.43;;;;;;;;;;5110712;28;20186;-48
2021/01/04 11:39:37;;;;;;;44.40;29.43;;;;;;;;;;5108046;28;20599;-48
2021/01/04 11:42:04;;;;;;;40.15;26.70;;;;;;;;;;5107206;28;20598;-49
2021/01/04 11:44:29;;;;;;;43.13;27.63;;;;;;;;;;5109982;28;20200;-49
2021/01/04 11:46:55;;;;;;;47.10;28.80;;;;;;;;;;5110342;28;20602;-48
2021/01/04 11:49:20;;;;;;;40.73;26.70;;;;;;;;;;5109012;28;20184;-48
2021/01/04 11:51:48;;;;;;;49.50;30.30;;;;;;;;;;5109742;27;20180;-49
2021/01/04 11:54:13;;;;;;;43.10;27.40;;;;;;;;;;5109979;28;20238;-49
2021/01/04 11:56:38;;;;;;;49.57;28.70;;;;;;;;;;5110546;28;20631;-50
2021/01/04 11:59:04;;;;;;;54.53;31.80;;;;;;;;;;5110191;28;20534;-49
2021/01/04 12:01:29;;;;;;;50.83;29.97;;;;;;;;;;5107303;28;20280;-49
2021/01/04 12:03:54;;;;;;;49.63;29.00;;;;;;;;;;5110139;28;20186;-49
2021/01/04 12:06:20;;;;;;;52.93;30.47;;;;;;;;;;5110805;28;20175;-49
2021/01/04 12:08:45;;;;;;;47.10;30.77;;;;;;;;;;5112690;28;20172;-50
2021/01/04 12:11:10;;;;;;;43.43;28.33;;;;;;;;;;5108241;28;20172;-49
2021/01/04 12:13:35;;;;;;;46.87;29.13;;;;;;;;;;5109916;28;20185;-49
2021/01/04 12:16:00;;;;;;;42.80;28.13;;;;;;;;;;5110313;28;20166;-49
2021/01/04 12:18:25;;;;;;;44.50;29.17;;;;;;;;;;5110340;28;20221;-50
2021/01/04 12:20:51;;;;;;;44.70;27.43;;;;;;;;;;5107876;28;20177;-49
2021/01/04 12:23:17;;;;;;;42.10;28.30;;;;;;;;;;5111498;28;20176;-49
2021/01/04 12:25:42;;;;;;;46.83;30.83;;;;;;;;;;5117334;28;20181;-50
2021/01/04 12:28:08;;;;;;;45.43;29.53;;;;;;;;;;5115664;27;21466;-49
2021/01/04 12:30:33;;;;;;;49.70;30.37;;;;;;;;;;5109357;28;20194;-50
2021/01/04 12:32:59;;;;;;;44.63;29.40;;;;;;;;;;5113400;28;20533;-48
2021/01/04 12:35:24;;;;;;;46.37;30.33;;;;;;;;;;5111501;28;20174;-49
2021/01/04 12:37:50;;;;;;;43.22;26.77;;;;;;;;;;5110513;28;20602;-50
2021/01/04 12:40:18;;;;;;;44.33;28.60;;;;;;;;;;5109529;28;20178;-49
2021/01/04 12:42:43;;;;;;;49.80;31.20;;;;;;;;;;5112326;28;20548;-49
2021/01/04 12:45:09;;;;;;;49.10;29.73;;;;;;;;;;5110365;28;20653;-48
2021/01/04 12:47:34;;;;;;;51.87;30.87;;;;;;;;;;5112224;28;20194;-48
2021/01/04 12:50:00;;;;;;;48.88;30.50;;;;;;;;;;5111330;28;20695;-52
2021/01/04 12:52:25;;;;;;;56.33;31.47;;;;;;;;;;5115918;28;20181;-49
2021/01/04 12:54:50;;;;;;;53.00;32.23;;;;;;;;;;5111431;28;20601;-48
2021/01/04 12:57:16;;;;;;;52.35;33.70;;;;;;;;;;5109947;28;20165;-50
2021/01/04 12:59:41;;;;;;;54.03;32.23;;;;;;;;;;5108682;28;20181;-50
2021/01/04 13:02:07;;;;;;;49.00;30.17;;;;;;;;;;5110777;28;20176;-50
2021/01/04 13:04:33;;;;;;;50.87;32.60;;;;;;;;;;5109924;28;20568;-49
2021/01/04 13:06:58;;;;;;;51.00;31.30;;;;;;;;;;5109964;28;20575;-50
2021/01/04 13:09:23;;;;;;;58.17;31.40;;;;;;;;;;5111624;28;20221;-49
2021/01/04 13:11:49;;;;;;;51.07;31.50;;;;;;;;;;5111959;28;20208;-48
2021/01/04 13:14:14;;;;;;;50.47;31.97;;;;;;;;;;5113970;28;20259;-49
2021/01/04 13:16:40;;;;;;;51.07;32.50;;;;;;;;;;5113331;28;20551;-49
2021/01/04 13:19:06;;;;;;;48.63;31.40;;;;;;;;;;5114144;28;20216;-49
2021/01/04 13:21:31;;;;;;;53.43;31.80;;;;;;;;;;5111683;28;20226;-50
2021/01/04 13:23:57;;;;;;;51.63;31.47;;;;;;;;;;5113436;28;20638;-49
2021/01/04 13:26:22;;;;;;;52.17;30.77;;;;;;;;;;5119685;27;20232;-49
2021/01/04 13:28:47;;;;;;;52.27;32.90;;;;;;;;;;5113330;28;20202;-49
2021/01/04 13:31:13;;;;;;;52.40;31.63;;;;;;;;;;5112494;28;20187;-49
2021/01/04 13:33:42;;;;;;;48.90;30.77;;;;;;;;;;5119757;27;20170;-48
2021/01/04 13:36:09;;;;;;;45.50;30.03;;;;;;;;;;5112398;27;20608;-49
2021/01/04 13:38:34;;;;;;;53.63;33.87;;;;;;;;;;5112598;28;21002;-48
2021/01/04 13:40:59;;;;;;;51.80;32.93;;;;;;;;;;5111569;27;20670;-48
2021/01/04 13:43:24;;;;;;;51.63;31.67;;;;;;;;;;5116007;27;20542;-49
2021/01/04 13:45:49;;;;;;;54.43;32.87;;;;;;;;;;5119245;27;20215;-48
2021/01/04 13:48:14;;;;;;;52.03;31.23;;;;;;;;;;5112213;28;20181;-50
2021/01/04 13:50:40;;;;;;;55.35;33.20;;;;;;;;;;5109719;28;20677;-48
2021/01/04 13:53:05;;;;;;;52.40;31.00;;;;;;;;;;5110325;28;20175;-50
2021/01/04 13:55:30;;;;;;;54.40;32.60;;;;;;;;;;5112105;28;20257;-49
2021/01/04 13:57:55;;;;;;;45.20;31.23;;;;;;;;;;5111440;28;20206;-50
2021/01/04 14:00:21;;;;;;;54.60;32.22;;;;;;;;;;5110002;28;20785;-49
2021/01/04 14:02:46;;;;;;;62.27;33.53;;;;;;;;;;5112137;28;20186;-48
2021/01/04 14:05:12;;;;;;;53.43;31.70;;;;;;;;;;5112340;28;20213;-49
2021/01/04 14:07:37;;;;;;;55.33;33.70;;;;;;;;;;5112591;28;20230;-49
2021/01/04 14:10:03;;;;;;;53.43;32.23;;;;;;;;;;5110517;28;20594;-49
2021/01/04 14:12:28;;;;;;;55.13;33.57;;;;;;;;;;5112351;28;20174;-50
2021/01/04 14:14:53;;;;;;;55.07;31.57;;;;;;;;;;5109035;28;20192;-49
2021/01/04 14:17:18;;;;;;;51.43;31.17;;;;;;;;;;5095526;28;20204;-49
2021/01/04 14:19:44;;;;;;;53.77;31.20;;;;;;;;;;5118696;27;20219;-50
2021/01/04 14:22:09;;;;;;;56.63;33.77;;;;;;;;;;5104493;28;20524;-50
2021/01/04 14:24:34;;;;;;;51.73;33.13;;;;;;;;;;5119048;27;20214;-48
2021/01/04 14:27:02;;;;;;;56.22;32.80;;;;;;;;;;5108882;27;20170;-50
2021/01/04 14:29:28;;;;;;;48.27;31.17;;;;;;;;;;5112431;27;20193;-49
2021/01/04 14:31:53;;;;;;;54.23;32.50;;;;;;;;;;5114094;27;20673;-49
2021/01/04 14:34:18;;;;;;;44.53;30.15;;;;;;;;;;5119180;27;20177;-49